createdAt,value
2023-02-15T00:01:12.669Z,9.73
2023-02-15T00:06:23.408Z,11.23
2023-02-15T00:11:41.449Z,10.23
2023-02-15T00:14:08.786Z,10.40
2023-02-15T00:16:36.945Z,10.57
2023-02-15T00:19:03.726Z,10.63
2023-02-15T00:21:31.078Z,11.10
2023-02-15T00:24:01.467Z,10.07
2023-02-15T00:26:28.270Z,10.27
2023-02-15T00:31:39.847Z,10.80
2023-02-15T00:34:16.727Z,10.27
2023-02-15T00:36:43.679Z,10.50
2023-02-15T00:39:10.413Z,10.50
2023-02-15T00:41:37.048Z,10.53
2023-02-15T00:44:03.966Z,10.30
2023-02-15T00:46:30.736Z,9.60
2023-02-15T00:48:57.346Z,10.57
2023-02-15T00:51:24.133Z,11.07
2023-02-15T00:53:50.788Z,10.17
2023-02-15T00:59:01.218Z,9.90
2023-02-15T01:04:12.584Z,10.13
2023-02-15T01:09:26.182Z,9.90
2023-02-15T01:14:36.682Z,9.40
2023-02-15T01:19:49.175Z,9.90
2023-02-15T01:25:01.665Z,10.20
2023-02-15T01:27:31.540Z,9.60
2023-02-15T01:29:58.183Z,10.00
2023-02-15T01:32:24.922Z,9.90
2023-02-15T01:34:52.000Z,9.20
2023-02-15T01:37:19.887Z,9.50
2023-02-15T01:39:46.633Z,9.93
2023-02-15T01:42:13.304Z,9.73
2023-02-15T02:16:27.469Z,11.97
2023-02-15T02:19:03.260Z,11.97
2023-02-15T02:21:35.792Z,12.40
2023-02-15T02:24:05.133Z,13.23
2023-02-15T02:27:10.337Z,12.13
2023-02-15T02:29:48.845Z,11.93
2023-02-15T02:32:15.415Z,11.60
2023-02-15T02:34:47.949Z,11.20
2023-02-15T02:37:21.705Z,11.90
2023-02-15T02:40:06.962Z,11.63
2023-02-15T02:45:23.965Z,12.07
2023-02-15T02:47:52.159Z,11.43
2023-02-15T02:50:28.547Z,11.53
2023-02-15T02:55:50.788Z,11.23
2023-02-15T02:58:21.092Z,11.30
2023-02-15T03:01:07.898Z,10.80
2023-02-15T03:03:54.113Z,11.63
2023-02-15T03:06:24.685Z,10.23
2023-02-15T03:08:52.368Z,10.90
2023-02-15T03:11:18.962Z,10.80
2023-02-15T03:13:45.873Z,9.83
2023-02-15T03:19:14.464Z,10.07
2023-02-15T03:24:43.224Z,9.67
2023-02-15T03:27:13.783Z,9.37
2023-02-15T03:29:40.556Z,13.02
2023-02-15T03:32:08.234Z,10.93
2023-02-15T03:34:35.038Z,10.90
2023-02-15T03:37:01.729Z,10.60
2023-02-15T03:39:29.362Z,10.30
2023-02-15T03:41:57.123Z,10.53
2023-02-15T03:44:23.944Z,10.20
2023-02-15T03:46:53.769Z,10.50
2023-02-15T03:52:13.927Z,11.37
2023-02-15T03:54:43.432Z,10.67
2023-02-15T03:57:37.782Z,9.97
2023-02-15T04:03:18.385Z,10.13
2023-02-15T04:08:47.870Z,10.30
2023-02-15T04:11:14.566Z,11.00
2023-02-15T04:13:41.280Z,10.47
2023-02-15T04:16:08.586Z,10.30
2023-02-15T04:18:59.661Z,10.07
2023-02-15T04:21:45.770Z,9.97
2023-02-15T04:27:16.327Z,12.13
2023-02-15T04:29:44.301Z,11.40
2023-02-15T04:32:10.984Z,10.37
2023-02-15T04:34:37.549Z,9.87
2023-02-15T04:37:04.175Z,10.00
2023-02-15T04:39:36.768Z,10.57
2023-02-15T04:42:06.040Z,10.27
2023-02-15T04:44:32.633Z,11.73
2023-02-15T04:46:59.327Z,10.77
2023-02-15T04:49:25.909Z,10.53
2023-02-15T04:51:52.771Z,10.13
2023-02-15T04:54:19.359Z,9.67
2023-02-15T04:56:46.068Z,9.97
2023-02-15T04:59:12.773Z,10.23
2023-02-15T05:01:39.401Z,10.37
2023-02-15T05:04:06.046Z,10.27
2023-02-15T05:06:32.617Z,11.00
2023-02-15T05:09:01.848Z,10.73
2023-02-15T05:14:12.578Z,10.13
2023-02-15T05:16:39.164Z,10.83
2023-02-15T05:19:05.834Z,10.00
2023-02-15T05:21:32.744Z,9.63
2023-02-15T05:24:00.030Z,9.07
2023-02-15T05:26:45.250Z,10.47
2023-02-15T05:29:12.218Z,10.40
2023-02-15T05:31:39.155Z,10.97
2023-02-15T05:34:06.095Z,11.03
2023-02-15T05:36:32.665Z,10.37
2023-02-15T05:38:59.548Z,10.07
2023-02-15T05:41:26.685Z,10.27
2023-02-15T05:43:55.747Z,9.83
2023-02-15T05:46:22.353Z,9.70
2023-02-15T05:48:49.262Z,9.27
2023-02-15T05:54:00.950Z,9.70
2023-02-15T05:59:11.541Z,9.10
2023-02-15T06:04:22.283Z,9.33
2023-02-15T06:09:33.333Z,8.90
2023-02-15T06:12:00.146Z,8.47
2023-02-15T06:14:26.824Z,9.07
2023-02-15T06:16:53.369Z,8.50
2023-02-15T06:19:20.470Z,9.10
2023-02-15T06:21:47.029Z,10.30
2023-02-15T06:24:13.655Z,9.77
2023-02-15T06:26:40.297Z,9.67
2023-02-15T06:29:06.961Z,9.13
2023-02-15T06:31:33.600Z,10.33
2023-02-15T06:34:02.786Z,10.20
2023-02-15T06:36:29.719Z,10.63
2023-02-15T06:38:58.817Z,10.20
2023-02-15T06:41:25.438Z,10.20
2023-02-15T06:43:52.166Z,10.03
2023-02-15T06:46:18.866Z,10.40
2023-02-15T06:48:45.647Z,9.93
2023-02-15T06:51:12.275Z,10.80
2023-02-15T06:53:38.872Z,10.23
2023-02-15T06:56:07.681Z,14.07
2023-02-15T06:58:34.803Z,10.50
2023-02-15T07:01:01.418Z,10.80
2023-02-15T07:03:28.190Z,10.00
2023-02-15T07:05:55.515Z,10.23
2023-02-15T07:08:22.172Z,10.40
2023-02-15T07:10:49.662Z,10.47
2023-02-15T07:13:16.381Z,10.90
2023-02-15T07:15:43.140Z,10.70
2023-02-15T07:18:10.400Z,10.90
2023-02-15T07:20:37.725Z,10.43
2023-02-15T07:23:04.765Z,10.73
2023-02-15T07:28:16.993Z,10.73
2023-02-15T07:33:28.429Z,10.40
2023-02-15T07:35:55.740Z,10.47
2023-02-15T07:38:22.484Z,10.93
2023-02-15T07:40:49.117Z,11.50
2023-02-15T07:46:01.175Z,10.93
2023-02-15T07:51:12.345Z,12.13
2023-02-15T07:56:23.793Z,11.00
2023-02-15T07:58:53.572Z,10.83
2023-02-15T08:01:27.316Z,9.47
2023-02-15T08:03:55.201Z,9.87
2023-02-15T08:06:25.746Z,10.40
2023-02-15T08:08:52.827Z,10.67
2023-02-15T08:11:37.414Z,11.07
2023-02-15T08:14:13.879Z,10.50
2023-02-15T08:16:41.363Z,11.47
2023-02-15T08:19:23.569Z,11.93
2023-02-15T08:21:51.284Z,10.27
2023-02-15T08:24:18.911Z,11.17
2023-02-15T08:26:48.841Z,11.27
2023-02-15T08:32:03.370Z,12.40
2023-02-15T08:37:15.667Z,12.73
2023-02-15T08:42:30.258Z,8.67
2023-02-15T08:44:56.917Z,12.13
2023-02-15T08:47:23.557Z,9.13
2023-02-15T08:49:50.395Z,12.40
2023-02-15T08:55:01.860Z,12.57
2023-02-15T08:57:28.437Z,13.63
2023-02-15T08:59:56.046Z,13.20
2023-02-15T09:02:22.697Z,7.67
2023-02-15T09:04:49.604Z,10.63
2023-02-15T09:07:16.807Z,13.83
2023-02-15T09:09:43.417Z,14.37
2023-02-15T09:14:54.513Z,14.00
2023-02-15T09:20:06.186Z,15.57
2023-02-15T09:25:17.001Z,13.60
2023-02-15T09:27:44.467Z,12.20
2023-02-15T09:30:11.446Z,12.90
2023-02-15T09:32:38.081Z,12.73
2023-02-15T09:35:04.873Z,13.97
2023-02-15T09:37:32.802Z,13.53
2023-02-15T09:40:02.449Z,11.83
2023-02-15T09:42:48.136Z,12.20
2023-02-15T09:45:27.683Z,10.43
2023-02-15T09:48:28.646Z,12.60
2023-02-15T09:51:14.239Z,9.17
2023-02-15T09:53:49.823Z,10.87
2023-02-15T09:56:31.752Z,12.10
2023-02-15T09:59:05.447Z,13.80
2023-02-15T10:01:32.143Z,14.77
2023-02-15T10:04:17.652Z,13.17
2023-02-15T10:06:45.303Z,13.90
2023-02-15T10:09:14.749Z,13.87
2023-02-15T10:11:51.090Z,13.63
2023-02-15T10:14:38.974Z,13.07
2023-02-15T10:17:24.442Z,13.17
2023-02-15T10:19:53.832Z,6.63
2023-02-15T10:25:17.475Z,8.43
2023-02-15T10:30:51.685Z,11.33
2023-02-15T10:33:24.822Z,14.87
2023-02-15T10:35:53.727Z,10.07
2023-02-15T10:38:30.078Z,11.87
2023-02-15T10:41:03.101Z,13.20
2023-02-15T10:43:32.755Z,12.63
2023-02-15T10:46:23.007Z,13.77
2023-02-15T10:49:06.812Z,11.73
2023-02-15T10:51:41.624Z,13.40
2023-02-15T10:54:26.514Z,16.93
2023-02-15T10:56:56.059Z,14.83
2023-02-15T10:59:22.766Z,13.07
2023-02-15T11:04:37.475Z,16.00
2023-02-15T11:09:51.210Z,14.37
2023-02-15T11:12:22.630Z,16.57
2023-02-15T11:14:55.178Z,15.70
2023-02-15T11:20:10.530Z,17.20
2023-02-15T11:22:37.281Z,15.93
2023-02-15T11:25:06.583Z,16.47
2023-02-15T11:27:36.043Z,13.70
2023-02-15T11:33:00.112Z,17.07
2023-02-15T11:35:31.489Z,15.50
2023-02-15T11:38:08.282Z,17.97
2023-02-15T11:40:35.455Z,16.43
2023-02-15T11:43:04.223Z,15.40
2023-02-15T11:45:30.894Z,15.00
2023-02-15T11:47:57.776Z,9.57
2023-02-15T11:50:25.258Z,15.63
2023-02-15T11:52:58.138Z,17.13
2023-02-15T11:55:27.660Z,13.50
2023-02-15T11:58:14.488Z,17.40
2023-02-15T12:00:47.933Z,17.90
2023-02-15T12:03:14.564Z,16.03
2023-02-15T12:05:41.941Z,16.23
2023-02-15T12:08:11.823Z,16.67
2023-02-15T12:10:39.696Z,13.73
2023-02-15T12:13:20.104Z,12.87
2023-02-15T12:15:50.321Z,17.63
2023-02-15T12:18:20.748Z,15.63
2023-02-15T12:20:47.491Z,18.00
2023-02-15T12:23:14.237Z,13.90
2023-02-15T12:25:41.443Z,16.80
2023-02-15T12:28:22.768Z,16.37
2023-02-15T12:30:49.506Z,14.90
2023-02-15T12:33:32.831Z,13.63
2023-02-15T12:39:07.067Z,17.97
2023-02-15T12:41:33.913Z,17.73
2023-02-15T12:44:06.720Z,18.10
2023-02-15T12:46:37.872Z,17.57
2023-02-15T12:49:10.858Z,17.13
2023-02-15T12:52:03.859Z,17.10
2023-02-15T12:54:35.512Z,17.70
2023-02-15T12:57:14.251Z,15.70
2023-02-15T12:59:57.221Z,16.57
2023-02-15T13:02:36.082Z,17.40
2023-02-15T13:05:19.549Z,15.90
2023-02-15T13:10:38.265Z,15.93
2023-02-15T13:13:10.314Z,15.90
2023-02-15T13:15:37.997Z,15.33
2023-02-15T13:18:05.380Z,15.00
2023-02-15T13:20:32.123Z,15.63
2023-02-15T13:23:00.192Z,14.80
2023-02-15T13:25:27.817Z,10.83
2023-02-15T13:30:41.992Z,14.50
2023-02-15T13:36:02.047Z,15.53
2023-02-15T13:38:46.860Z,12.53
2023-02-15T13:41:17.937Z,14.37
2023-02-15T13:43:50.562Z,15.93
2023-02-15T13:46:35.745Z,15.43
2023-02-15T13:49:21.316Z,14.57
2023-02-15T13:51:48.173Z,15.03
2023-02-15T13:54:36.532Z,14.77
2023-02-15T13:57:06.611Z,15.23
2023-02-15T13:59:33.966Z,15.50
2023-02-15T14:02:12.890Z,17.03
2023-02-15T14:04:58.576Z,16.30
2023-02-15T14:07:25.743Z,21.73
2023-02-15T14:10:04.335Z,16.17
2023-02-15T14:15:41.788Z,15.57
2023-02-15T14:18:24.617Z,16.93
2023-02-15T14:20:57.784Z,17.70
2023-02-15T14:23:29.195Z,16.10
2023-02-15T14:26:01.783Z,15.87
2023-02-15T14:28:31.156Z,16.03
2023-02-15T14:30:58.704Z,16.40
2023-02-15T14:33:38.945Z,16.57
2023-02-15T14:36:07.582Z,16.80
2023-02-15T14:38:53.366Z,16.47
2023-02-15T14:41:39.075Z,15.70
2023-02-15T14:46:52.994Z,18.43
2023-02-15T14:49:26.003Z,18.33
2023-02-15T14:51:52.972Z,17.57
2023-02-15T14:54:22.597Z,17.73
2023-02-15T15:00:00.508Z,15.87
2023-02-15T15:02:27.636Z,16.50
2023-02-15T15:05:00.406Z,17.77
2023-02-15T15:07:29.449Z,16.67
2023-02-15T15:10:00.706Z,17.07
2023-02-15T15:12:27.408Z,16.50
2023-02-15T15:14:54.560Z,16.87
2023-02-15T15:17:39.608Z,17.17
2023-02-15T15:20:08.510Z,15.67
2023-02-15T15:22:35.427Z,16.53
2023-02-15T15:25:06.302Z,17.63
2023-02-15T15:27:46.472Z,17.27
2023-02-15T15:30:16.211Z,18.17
2023-02-15T15:32:54.949Z,17.83
2023-02-15T15:35:26.641Z,17.07
2023-02-15T15:37:59.425Z,18.30
2023-02-15T15:40:44.760Z,17.27
2023-02-15T15:43:23.482Z,18.37
2023-02-15T15:46:00.096Z,17.93
2023-02-15T15:48:39.925Z,18.93
2023-02-15T15:51:30.294Z,17.53
2023-02-15T15:56:41.681Z,15.83
2023-02-15T15:59:09.150Z,17.20
2023-02-15T16:01:56.347Z,17.80
2023-02-15T16:04:25.218Z,19.00
2023-02-15T16:06:51.863Z,19.10
2023-02-15T16:09:22.436Z,18.77
2023-02-15T16:11:51.095Z,19.20
2023-02-15T16:14:21.085Z,19.97
2023-02-15T16:16:48.986Z,21.50
2023-02-15T16:19:19.716Z,21.63
2023-02-15T16:21:47.408Z,21.20
2023-02-15T16:24:26.142Z,21.67
2023-02-15T16:27:09.305Z,19.47
2023-02-15T16:29:37.294Z,20.13
2023-02-15T16:32:07.400Z,31.03
2023-02-15T16:34:34.436Z,26.33
2023-02-15T16:40:08.323Z,22.47
2023-02-15T16:42:35.632Z,21.90
2023-02-15T16:45:04.694Z,21.67
2023-02-15T16:47:32.499Z,24.17
2023-02-15T16:50:00.299Z,24.90
2023-02-15T16:52:27.744Z,25.77
2023-02-15T16:55:17.224Z,24.27
2023-02-15T16:57:43.888Z,26.77
2023-02-15T17:00:20.174Z,26.57
2023-02-15T17:02:56.885Z,27.40
2023-02-15T17:05:23.865Z,26.93
2023-02-15T17:08:08.975Z,28.60
2023-02-15T17:14:05.809Z,28.40
2023-02-15T17:16:34.302Z,28.47
2023-02-15T17:19:05.504Z,26.97
2023-02-15T17:21:33.317Z,28.80
2023-02-15T17:24:01.306Z,29.47
2023-02-15T17:26:28.691Z,27.93
2023-02-15T17:28:57.278Z,29.73
2023-02-15T17:31:25.405Z,27.03
2023-02-15T17:36:39.122Z,27.43
2023-02-15T17:41:54.643Z,27.67
2023-02-15T17:44:23.317Z,29.07
2023-02-15T17:46:50.162Z,29.17
2023-02-15T17:49:24.125Z,30.77
2023-02-15T17:51:50.964Z,29.87
2023-02-15T17:54:36.288Z,27.60
2023-02-15T17:57:06.105Z,27.90
2023-02-15T17:59:33.345Z,29.43
2023-02-15T18:02:18.846Z,28.10
2023-02-15T18:05:04.004Z,29.67
2023-02-15T18:10:52.783Z,27.70
2023-02-15T18:13:19.984Z,28.17
2023-02-15T18:15:46.793Z,27.93
2023-02-15T18:18:14.732Z,28.53
2023-02-15T18:20:43.642Z,28.07
2023-02-15T18:23:14.348Z,27.37
2023-02-15T18:25:40.963Z,28.30
2023-02-15T18:28:10.491Z,29.70
2023-02-15T18:30:37.165Z,29.47
2023-02-15T18:33:04.523Z,34.17
2023-02-15T18:35:32.333Z,34.87
2023-02-15T18:37:59.181Z,35.47
2023-02-15T18:40:26.189Z,32.80
2023-02-15T18:42:53.089Z,31.63
2023-02-15T18:45:21.203Z,32.27
2023-02-15T18:47:48.253Z,29.90
2023-02-15T18:50:15.529Z,31.93
2023-02-15T18:52:42.246Z,30.87
2023-02-15T18:58:04.765Z,31.53
2023-02-15T19:03:22.227Z,30.83
2023-02-15T19:05:49.580Z,30.67
2023-02-15T19:08:21.997Z,32.80
2023-02-15T19:10:48.634Z,32.47
2023-02-15T19:13:17.516Z,23.67
2023-02-15T19:15:44.222Z,18.63
2023-02-15T19:18:12.725Z,33.57
2023-02-15T19:20:44.423Z,35.77
2023-02-15T19:23:24.204Z,30.03
2023-02-15T19:25:52.043Z,29.10
2023-02-15T19:28:20.032Z,28.17
2023-02-15T19:30:47.564Z,19.33
2023-02-15T19:33:18.257Z,33.57
2023-02-15T19:35:46.524Z,20.83
2023-02-15T19:38:15.273Z,24.90
2023-02-15T19:40:42.477Z,33.83
2023-02-15T19:43:18.714Z,31.17
2023-02-15T19:45:46.614Z,25.67
2023-02-15T19:48:14.030Z,26.63
2023-02-15T19:50:44.525Z,28.27
2023-02-15T19:53:15.600Z,33.23
2023-02-15T19:55:43.474Z,18.83
2023-02-15T20:00:56.841Z,29.37
2023-02-15T20:03:23.630Z,32.23
2023-02-15T20:05:51.440Z,38.83
2023-02-15T20:08:20.367Z,27.23
2023-02-15T20:10:48.407Z,36.43
2023-02-15T20:13:15.918Z,36.50
2023-02-15T20:15:43.430Z,39.37
2023-02-15T20:20:58.213Z,35.63
2023-02-15T20:23:26.703Z,27.97
2023-02-15T20:25:54.456Z,28.70
2023-02-15T20:28:25.371Z,36.57
2023-02-15T20:33:37.572Z,40.67
2023-02-15T20:38:50.772Z,26.83
2023-02-15T20:41:36.928Z,41.33
2023-02-15T20:44:09.735Z,30.60
2023-02-15T20:46:36.502Z,29.03
2023-02-15T20:49:03.161Z,26.80
2023-02-15T20:51:29.875Z,41.23
2023-02-15T20:56:41.830Z,31.37
2023-02-15T20:59:24.026Z,39.87
2023-02-15T21:01:51.120Z,36.50
2023-02-15T21:04:23.172Z,40.73
2023-02-15T21:06:49.861Z,33.00
2023-02-15T21:09:17.411Z,40.23
2023-02-15T21:11:44.480Z,36.53
2023-02-15T21:14:17.666Z,37.63
2023-02-15T21:16:44.382Z,42.20
2023-02-15T21:19:12.289Z,40.23
2023-02-15T21:21:40.202Z,42.93
2023-02-15T21:24:07.231Z,36.53
2023-02-15T21:26:33.899Z,23.97
2023-02-15T21:29:01.763Z,40.00
2023-02-15T21:31:29.791Z,42.07
2023-02-15T21:33:57.772Z,40.10
2023-02-15T21:36:25.641Z,40.63
2023-02-15T21:38:53.911Z,30.20
2023-02-15T21:44:42.614Z,28.13
2023-02-15T21:47:41.125Z,43.17
2023-02-15T21:50:28.718Z,40.07
2023-02-15T21:52:55.947Z,33.37
2023-02-15T21:55:22.598Z,44.43
2023-02-15T21:57:49.366Z,41.60
2023-02-15T22:03:06.202Z,44.97
2023-02-15T22:05:33.351Z,43.17
2023-02-15T22:08:00.344Z,33.77
2023-02-15T22:10:29.071Z,40.73
2023-02-15T22:12:55.979Z,31.87
2023-02-15T22:15:23.381Z,33.87
2023-02-15T22:17:50.434Z,42.07
2023-02-15T22:23:03.984Z,41.83
2023-02-15T22:25:30.766Z,38.00
2023-02-15T22:27:57.630Z,26.57
2023-02-15T22:30:25.549Z,42.07
2023-02-15T22:32:52.653Z,35.77
2023-02-15T22:35:20.730Z,44.70
2023-02-15T22:37:47.521Z,41.53
2023-02-15T22:43:02.715Z,43.60
2023-02-15T22:45:29.650Z,39.40
2023-02-15T22:47:56.960Z,44.90
2023-02-15T22:50:28.149Z,32.13
2023-02-15T22:52:55.482Z,42.40
2023-02-15T22:55:23.885Z,40.93
2023-02-15T22:57:51.734Z,30.17
2023-02-15T23:00:19.791Z,44.37
2023-02-15T23:02:46.622Z,42.27
2023-02-15T23:05:17.180Z,44.63
2023-02-15T23:10:28.659Z,45.10
2023-02-15T23:13:15.167Z,45.13
2023-02-15T23:15:42.001Z,44.57
2023-02-15T23:18:21.095Z,39.70
2023-02-15T23:20:51.269Z,38.37
2023-02-15T23:23:18.050Z,45.07
2023-02-15T23:25:44.929Z,37.23
2023-02-15T23:28:31.040Z,45.17
2023-02-15T23:30:59.332Z,45.80
2023-02-15T23:33:28.429Z,45.03
2023-02-15T23:35:55.451Z,43.63
2023-02-15T23:38:23.868Z,44.87
2023-02-15T23:41:10.416Z,44.40
2023-02-15T23:43:37.213Z,42.77
2023-02-15T23:46:03.985Z,46.17
2023-02-15T23:48:37.331Z,42.77
2023-02-15T23:53:48.800Z,42.60
2023-02-15T23:58:59.722Z,42.27
